Time;durP1;ratioP1;P1;durP2;ratioP2;P2;SDS_P1;SDS_P2;PMS_P1;PMS_P2;Temp;Humidity;BMP_temperature;BMP_pressure;BME280_temperature;BME280_humidity;BME280_pressure;Samples;Min_cycle;Max_cycle;Signal;HPM_P1;HPM_P2
2022/12/09 00:00:12;;;;;;;40.60;16.80;;;;;;;;;;5087218;28;20074;-79
2022/12/09 00:02:39;;;;;;;42.00;16.80;;;;;;;;;;5086907;28;20057;-79
2022/12/09 00:05:06;;;;;;;40.60;17.10;;;;;;;;;;5075364;28;20623;-78
2022/12/09 00:07:36;;;;;;;40.38;17.20;;;;;;;;;;5106302;27;20860;-79
2022/12/09 00:10:03;;;;;;;41.42;16.45;;;;;;;;;;5129963;27;20047;-79
2022/12/09 00:12:30;;;;;;;44.55;17.08;;;;;;;;;;5098380;27;20056;-79
2022/12/09 00:14:56;;;;;;;43.42;17.13;;;;;;;;;;5092832;28;20191;-79
2022/12/09 00:17:23;;;;;;;42.05;17.25;;;;;;;;;;5109755;28;20134;-78
2022/12/09 00:19:49;;;;;;;39.97;16.70;;;;;;;;;;5109694;28;20051;-78
2022/12/09 00:22:16;;;;;;;41.05;17.10;;;;;;;;;;5102241;27;20134;-79
2022/12/09 00:24:42;;;;;;;41.38;17.63;;;;;;;;;;5106624;27;20534;-78
2022/12/09 00:27:10;;;;;;;40.13;17.48;;;;;;;;;;5074250;28;20052;-79
2022/12/09 00:29:40;;;;;;;44.22;17.27;;;;;;;;;;5098206;28;20060;-79
2022/12/09 00:32:08;;;;;;;41.53;17.05;;;;;;;;;;5090959;28;20040;-79
2022/12/09 00:34:35;;;;;;;41.85;18.00;;;;;;;;;;5101840;27;20087;-78
2022/12/09 00:37:02;;;;;;;43.00;16.52;;;;;;;;;;5085349;28;20068;-79
2022/12/09 00:39:28;;;;;;;42.55;17.10;;;;;;;;;;5089216;28;20139;-79
2022/12/09 00:41:55;;;;;;;41.33;17.13;;;;;;;;;;5106710;28;20054;-79
2022/12/09 00:44:21;;;;;;;44.08;18.13;;;;;;;;;;5093459;27;20459;-79
2022/12/09 00:46:47;;;;;;;42.60;17.42;;;;;;;;;;5096459;28;20507;-79
2022/12/09 00:49:14;;;;;;;42.38;17.27;;;;;;;;;;5090858;27;20139;-79
2022/12/09 00:51:41;;;;;;;43.90;16.60;;;;;;;;;;5110860;27;20062;-79
2022/12/09 00:54:08;;;;;;;47.13;17.88;;;;;;;;;;5129324;27;20055;-79
2022/12/09 00:56:34;;;;;;;41.50;18.38;;;;;;;;;;5112495;27;20793;-79
2022/12/09 00:59:01;;;;;;;41.47;16.90;;;;;;;;;;5088168;28;20491;-78
2022/12/09 01:01:28;;;;;;;44.00;16.60;;;;;;;;;;5102804;28;20056;-79
2022/12/09 01:03:55;;;;;;;43.70;16.17;;;;;;;;;;5104073;27;20098;-79
2022/12/09 01:06:23;;;;;;;39.28;15.38;;;;;;;;;;5108336;28;20052;-79
2022/12/09 01:08:49;;;;;;;43.05;17.40;;;;;;;;;;5098812;28;20104;-79
2022/12/09 01:11:22;;;;;;;42.97;16.77;;;;;;;;;;5092422;28;20577;-78
2022/12/09 01:13:52;;;;;;;43.45;17.65;;;;;;;;;;5091525;27;20049;-78
2022/12/09 01:16:25;;;;;;;47.53;18.27;;;;;;;;;;5099136;27;20048;-78
2022/12/09 01:18:52;;;;;;;43.70;17.77;;;;;;;;;;5128760;27;20055;-78
2022/12/09 01:21:19;;;;;;;44.95;18.50;;;;;;;;;;5105255;28;20078;-78
2022/12/09 01:23:45;;;;;;;45.17;17.85;;;;;;;;;;5112295;28;20052;-78
2022/12/09 01:26:12;;;;;;;43.33;17.52;;;;;;;;;;5102213;28;20206;-78
2022/12/09 01:28:39;;;;;;;45.50;18.45;;;;;;;;;;5093948;28;20052;-79
2022/12/09 01:31:10;;;;;;;42.20;17.42;;;;;;;;;;5092785;28;20059;-79
2022/12/09 01:33:36;;;;;;;;;;;;;;;;;;5103766;27;20056;-79
2022/12/09 01:36:03;;;;;;;45.38;18.05;;;;;;;;;;5103351;28;46101;-78
2022/12/09 01:38:33;;;;;;;41.08;16.27;;;;;;;;;;5116828;27;20056;-77
2022/12/09 01:40:59;;;;;;;45.50;17.17;;;;;;;;;;5109637;28;20862;-77
2022/12/09 01:43:26;;;;;;;40.92;17.30;;;;;;;;;;5109833;28;20056;-77
2022/12/09 01:45:53;;;;;;;39.60;16.73;;;;;;;;;;5109782;28;20092;-77
2022/12/09 01:48:22;;;;;;;41.40;16.75;;;;;;;;;;5094072;28;20106;-77
2022/12/09 01:50:56;;;;;;;41.60;16.58;;;;;;;;;;5108598;27;20095;-77
2022/12/09 01:53:24;;;;;;;36.53;15.82;;;;;;;;;;5115012;27;21179;-78
2022/12/09 01:55:53;;;;;;;36.38;16.08;;;;;;;;;;5101275;28;20051;-77
2022/12/09 01:58:19;;;;;;;40.15;15.85;;;;;;;;;;5093423;28;20106;-77
2022/12/09 02:00:46;;;;;;;40.22;16.48;;;;;;;;;;5089503;28;20101;-77
2022/12/09 02:03:12;;;;;;;36.13;15.45;;;;;;;;;;5094765;28;20248;-77
2022/12/09 02:05:40;;;;;;;39.33;16.48;;;;;;;;;;5113413;27;20066;-77
2022/12/09 02:08:10;;;;;;;36.70;15.60;;;;;;;;;;5089159;28;20063;-77
2022/12/09 02:10:41;;;;;;;41.60;15.63;;;;;;;;;;5080766;28;20458;-77
2022/12/09 02:13:17;;;;;;;39.75;15.45;;;;;;;;;;5109107;28;20135;-77
2022/12/09 02:15:46;;;;;;;38.45;15.65;;;;;;;;;;5108057;28;20051;-77
2022/12/09 02:18:22;;;;;;;39.65;15.23;;;;;;;;;;5088169;28;20048;-77
2022/12/09 02:20:52;;;;;;;38.00;15.55;;;;;;;;;;5106036;27;20052;-77
2022/12/09 02:23:18;;;;;;;41.40;17.02;;;;;;;;;;5108453;28;20067;-77
2022/12/09 02:25:51;;;;;;;40.70;15.30;;;;;;;;;;5108004;28;20055;-77
2022/12/09 02:28:23;;;;;;;38.97;15.45;;;;;;;;;;5112054;27;20141;-77
2022/12/09 02:30:50;;;;;;;36.00;13.90;;;;;;;;;;5102797;27;20296;-77
2022/12/09 02:33:39;;;;;;;32.25;13.85;;;;;;;;;;5090869;28;20130;-77
2022/12/09 02:36:13;;;;;;;38.03;14.65;;;;;;;;;;5101643;28;20052;-78
2022/12/09 02:38:41;;;;;;;36.58;14.13;;;;;;;;;;5102247;28;20063;-78
2022/12/09 02:41:14;;;;;;;39.70;15.13;;;;;;;;;;5089170;28;20117;-77
2022/12/09 02:43:44;;;;;;;35.60;13.70;;;;;;;;;;5102481;28;20514;-77
2022/12/09 02:46:18;;;;;;;31.42;13.43;;;;;;;;;;5079616;28;20581;-77
2022/12/09 02:48:47;;;;;;;35.38;13.98;;;;;;;;;;5107870;28;20083;-78
2022/12/09 02:51:16;;;;;;;34.70;13.40;;;;;;;;;;5097899;28;20537;-77
2022/12/09 02:53:45;;;;;;;38.83;15.23;;;;;;;;;;5108724;27;20090;-77
2022/12/09 02:56:13;;;;;;;34.90;14.38;;;;;;;;;;5095816;28;20548;-77
2022/12/09 02:58:39;;;;;;;31.95;12.95;;;;;;;;;;5105501;28;20044;-77
2022/12/09 03:01:18;;;;;;;35.80;14.13;;;;;;;;;;5099643;28;20130;-78
2022/12/09 03:03:44;;;;;;;31.08;13.23;;;;;;;;;;5089704;28;20063;-77
2022/12/09 03:06:15;;;;;;;31.30;13.02;;;;;;;;;;5103769;28;20056;-78
2022/12/09 03:08:47;;;;;;;30.42;12.70;;;;;;;;;;5092117;27;20147;-78
2022/12/09 03:11:15;;;;;;;41.33;12.80;;;;;;;;;;5102247;28;20052;-77
2022/12/09 03:13:45;;;;;;;42.47;11.50;;;;;;;;;;5108868;28;20079;-78
2022/12/09 03:16:12;;;;;;;25.45;11.35;;;;;;;;;;5105686;28;20047;-78
2022/12/09 03:18:40;;;;;;;26.38;11.32;;;;;;;;;;5099279;28;20080;-77
2022/12/09 03:21:07;;;;;;;23.75;10.63;;;;;;;;;;5087292;27;22363;-78
2022/12/09 03:23:35;;;;;;;25.00;10.70;;;;;;;;;;5069808;28;20538;-77
2022/12/09 03:26:02;;;;;;;31.23;9.68;;;;;;;;;;5097155;28;20128;-78
2022/12/09 03:28:41;;;;;;;44.75;10.07;;;;;;;;;;5094277;28;20055;-77
2022/12/09 03:31:11;;;;;;;47.08;9.93;;;;;;;;;;5108370;28;20097;-78
2022/12/09 03:33:40;;;;;;;33.30;10.38;;;;;;;;;;5090018;28;20048;-78
2022/12/09 03:36:12;;;;;;;29.75;10.15;;;;;;;;;;5091012;28;20606;-78
2022/12/09 03:38:39;;;;;;;85.70;11.02;;;;;;;;;;5114186;27;20048;-78
2022/12/09 03:41:11;;;;;;;42.45;10.25;;;;;;;;;;5129279;27;20082;-78
2022/12/09 03:43:41;;;;;;;30.35;9.27;;;;;;;;;;5114313;27;20097;-78
2022/12/09 03:46:07;;;;;;;22.55;9.05;;;;;;;;;;5105853;28;20053;-78
2022/12/09 03:48:34;;;;;;;20.75;9.27;;;;;;;;;;5105910;28;20055;-78
2022/12/09 03:51:06;;;;;;;23.45;10.35;;;;;;;;;;5088570;28;20110;-78
2022/12/09 03:53:36;;;;;;;66.47;11.02;;;;;;;;;;5099198;27;20052;-78
2022/12/09 03:56:09;;;;;;;49.85;10.25;;;;;;;;;;5112800;27;20153;-78
2022/12/09 03:58:40;;;;;;;61.17;11.68;;;;;;;;;;5088824;28;20080;-78
2022/12/09 04:01:06;;;;;;;131.40;15.35;;;;;;;;;;5087912;28;20139;-78
2022/12/09 04:03:33;;;;;;;79.10;13.18;;;;;;;;;;5089281;28;20145;-78
2022/12/09 04:06:00;;;;;;;73.90;12.52;;;;;;;;;;5089359;28;20458;-78
2022/12/09 04:08:26;;;;;;;60.83;12.30;;;;;;;;;;5088123;28;20572;-78
2022/12/09 04:10:53;;;;;;;68.47;12.88;;;;;;;;;;5101312;27;20056;-78
2022/12/09 04:13:20;;;;;;;41.45;12.15;;;;;;;;;;5104004;28;20056;-78
2022/12/09 04:15:47;;;;;;;48.03;12.50;;;;;;;;;;5108977;28;20122;-78
2022/12/09 04:18:14;;;;;;;25.92;11.35;;;;;;;;;;5090931;28;20122;-78
2022/12/09 04:20:41;;;;;;;26.15;10.75;;;;;;;;;;5069324;28;20818;-78
2022/12/09 04:23:10;;;;;;;24.08;11.18;;;;;;;;;;5087548;28;20052;-79
2022/12/09 04:25:47;;;;;;;23.35;10.70;;;;;;;;;;5073992;28;20170;-78
2022/12/09 04:28:13;;;;;;;27.35;11.50;;;;;;;;;;5099064;28;20052;-78
2022/12/09 04:30:45;;;;;;;26.88;11.70;;;;;;;;;;5108971;28;20111;-78
2022/12/09 04:33:12;;;;;;;24.30;10.65;;;;;;;;;;5099662;27;20132;-78
2022/12/09 04:35:42;;;;;;;24.55;10.60;;;;;;;;;;5127593;27;20059;-78
2022/12/09 04:38:08;;;;;;;23.90;10.45;;;;;;;;;;5113791;27;20091;-78
2022/12/09 04:40:36;;;;;;;22.45;9.68;;;;;;;;;;5078129;28;20068;-78
2022/12/09 04:43:03;;;;;;;24.85;10.80;;;;;;;;;;5100842;27;20190;-78
2022/12/09 04:45:29;;;;;;;23.83;10.43;;;;;;;;;;5099591;28;20064;-78
2022/12/09 04:47:59;;;;;;;24.73;11.43;;;;;;;;;;5105443;27;20128;-78
2022/12/09 04:50:26;;;;;;;25.35;10.73;;;;;;;;;;5099227;27;20055;-78
2022/12/09 04:52:52;;;;;;;21.88;11.27;;;;;;;;;;5100648;28;20054;-78
2022/12/09 04:55:19;;;;;;;23.35;9.57;;;;;;;;;;5108627;28;20059;-78
2022/12/09 04:57:46;;;;;;;26.83;11.25;;;;;;;;;;5108408;28;20138;-79
2022/12/09 05:00:13;;;;;;;23.35;10.80;;;;;;;;;;5094899;28;20063;-79
2022/12/09 05:02:40;;;;;;;26.88;11.55;;;;;;;;;;5089795;28;20103;-79
2022/12/09 05:05:10;;;;;;;25.33;10.65;;;;;;;;;;5117539;27;20099;-79
2022/12/09 05:07:36;;;;;;;38.70;12.10;;;;;;;;;;5104491;28;20519;-79
2022/12/09 05:10:03;;;;;;;47.72;11.35;;;;;;;;;;5075337;28;20139;-79
2022/12/09 05:12:31;;;;;;;41.63;12.98;;;;;;;;;;5093165;28;20087;-79
2022/12/09 05:14:58;;;;;;;86.20;14.05;;;;;;;;;;5096917;28;20044;-79
2022/12/09 05:17:25;;;;;;;65.90;14.35;;;;;;;;;;5099072;27;20733;-79
2022/12/09 05:19:52;;;;;;;101.85;15.20;;;;;;;;;;5093180;28;20055;-79
2022/12/09 05:22:19;;;;;;;126.22;15.68;;;;;;;;;;5088459;28;20889;-79
2022/12/09 05:24:48;;;;;;;248.25;19.08;;;;;;;;;;5086436;28;20438;-79
2022/12/09 05:27:15;;;;;;;207.32;19.02;;;;;;;;;;5088320;28;20114;-79
2022/12/09 05:29:42;;;;;;;188.90;19.17;;;;;;;;;;5087911;28;20048;-79
2022/12/09 05:32:08;;;;;;;194.15;17.58;;;;;;;;;;5072253;28;20062;-79
2022/12/09 05:34:35;;;;;;;214.68;18.45;;;;;;;;;;5095470;28;20056;-79
2022/12/09 05:37:02;;;;;;;232.90;18.77;;;;;;;;;;5107011;27;20044;-79
2022/12/09 05:39:29;;;;;;;134.90;16.80;;;;;;;;;;5114291;27;20060;-78
2022/12/09 05:41:56;;;;;;;189.38;16.85;;;;;;;;;;5116570;27;20498;-79
2022/12/09 05:44:23;;;;;;;81.25;16.23;;;;;;;;;;5086379;28;20132;-78
2022/12/09 05:46:49;;;;;;;154.90;16.38;;;;;;;;;;5096959;28;20048;-79
2022/12/09 05:49:16;;;;;;;101.03;17.27;;;;;;;;;;5096072;27;20174;-78
2022/12/09 05:51:43;;;;;;;158.00;16.15;;;;;;;;;;5087704;28;20485;-78
2022/12/09 05:54:10;;;;;;;113.88;16.10;;;;;;;;;;5115304;27;20055;-79
2022/12/09 05:56:37;;;;;;;99.10;15.65;;;;;;;;;;5109624;27;20052;-78
2022/12/09 05:59:11;;;;;;;47.40;14.20;;;;;;;;;;5090538;28;20060;-78
2022/12/09 06:01:38;;;;;;;44.25;13.85;;;;;;;;;;5106470;27;20067;-79
2022/12/09 06:04:04;;;;;;;39.05;13.18;;;;;;;;;;5100572;28;20060;-79
2022/12/09 06:06:31;;;;;;;32.30;12.75;;;;;;;;;;5090423;28;20143;-78
2022/12/09 06:08:59;;;;;;;37.35;14.07;;;;;;;;;;5101320;28;20056;-79
2022/12/09 06:11:26;;;;;;;36.97;14.43;;;;;;;;;;5090423;28;20078;-79
2022/12/09 06:13:54;;;;;;;40.88;15.18;;;;;;;;;;5102878;28;20049;-79
2022/12/09 06:16:21;;;;;;;43.92;15.20;;;;;;;;;;5073363;28;20134;-79
2022/12/09 06:18:48;;;;;;;39.30;13.68;;;;;;;;;;5091276;28;20064;-80
2022/12/09 06:21:16;;;;;;;45.70;14.77;;;;;;;;;;5087477;28;20065;-78
2022/12/09 06:23:43;;;;;;;38.20;15.48;;;;;;;;;;5109111;28;20052;-78
2022/12/09 06:26:17;;;;;;;43.05;14.77;;;;;;;;;;5107278;27;20656;-78
2022/12/09 06:28:43;;;;;;;36.42;14.43;;;;;;;;;;5095228;28;20056;-78
2022/12/09 06:31:10;;;;;;;35.97;15.13;;;;;;;;;;5098674;28;20056;-78
2022/12/09 06:33:37;;;;;;;40.67;14.23;;;;;;;;;;5094152;28;20135;-78
2022/12/09 06:36:20;;;;;;;38.50;14.75;;;;;;;;;;5109308;28;20102;-78
2022/12/09 06:38:47;;;;;;;37.70;14.30;;;;;;;;;;5109511;28;20060;-78
2022/12/09 06:41:14;;;;;;;36.72;14.20;;;;;;;;;;5105727;27;20063;-78
2022/12/09 06:43:40;;;;;;;36.20;14.32;;;;;;;;;;5098577;27;20064;-78
2022/12/09 06:46:16;;;;;;;33.95;14.77;;;;;;;;;;5118048;27;20055;-78
2022/12/09 06:48:43;;;;;;;36.15;15.18;;;;;;;;;;5109511;28;20059;-78
2022/12/09 06:51:10;;;;;;;33.50;14.13;;;;;;;;;;5107705;28;20056;-78
2022/12/09 06:53:37;;;;;;;39.35;15.73;;;;;;;;;;5083266;28;20513;-78
2022/12/09 06:56:04;;;;;;;31.60;13.30;;;;;;;;;;5104146;27;20083;-78
2022/12/09 06:58:38;;;;;;;35.72;14.35;;;;;;;;;;5110350;27;20135;-78
2022/12/09 07:01:07;;;;;;;33.35;15.68;;;;;;;;;;5100298;28;20507;-78
2022/12/09 07:03:34;;;;;;;36.78;14.32;;;;;;;;;;5082115;28;20056;-78
2022/12/09 07:06:01;;;;;;;35.13;13.32;;;;;;;;;;5102533;28;20514;-79
2022/12/09 07:08:29;;;;;;;34.08;13.75;;;;;;;;;;5069171;28;20049;-78
2022/12/09 07:10:56;;;;;;;35.05;15.10;;;;;;;;;;5096612;28;20064;-78
2022/12/09 07:13:23;;;;;;;34.58;13.52;;;;;;;;;;5105354;27;20060;-78
2022/12/09 07:15:50;;;;;;;31.80;13.65;;;;;;;;;;5101964;27;20139;-78
2022/12/09 07:18:16;;;;;;;32.60;13.35;;;;;;;;;;5108256;27;20076;-78
2022/12/09 07:20:43;;;;;;;33.47;14.10;;;;;;;;;;5089478;28;20087;-78
2022/12/09 07:23:11;;;;;;;38.78;15.65;;;;;;;;;;5097912;28;20056;-78
2022/12/09 07:25:37;;;;;;;32.88;14.43;;;;;;;;;;5084011;28;20143;-78
2022/12/09 07:28:04;;;;;;;31.95;14.23;;;;;;;;;;5098431;27;20059;-78
2022/12/09 07:30:30;;;;;;;33.35;14.15;;;;;;;;;;5076064;28;20060;-78
2022/12/09 07:32:57;;;;;;;33.08;14.40;;;;;;;;;;5098863;27;20045;-78
2022/12/09 07:35:24;;;;;;;32.97;14.32;;;;;;;;;;5100487;27;20125;-81
2022/12/09 07:37:51;;;;;;;35.35;14.43;;;;;;;;;;5089324;28;20147;-77
2022/12/09 07:40:18;;;;;;;39.95;15.70;;;;;;;;;;5099376;28;20097;-78
2022/12/09 07:42:44;;;;;;;38.42;15.38;;;;;;;;;;5106348;28;20059;-78
2022/12/09 07:45:11;;;;;;;35.70;14.98;;;;;;;;;;5106183;28;20719;-78
2022/12/09 07:47:38;;;;;;;43.88;16.50;;;;;;;;;;5096617;28;20083;-78
2022/12/09 07:50:05;;;;;;;36.72;15.07;;;;;;;;;;5080758;28;20136;-78
2022/12/09 07:52:33;;;;;;;33.85;15.20;;;;;;;;;;5089120;28;20166;-78
2022/12/09 07:55:00;;;;;;;38.00;16.45;;;;;;;;;;5102349;28;20511;-78
2022/12/09 07:57:26;;;;;;;41.05;16.17;;;;;;;;;;5096989;27;20059;-78
2022/12/09 07:59:55;;;;;;;41.90;15.82;;;;;;;;;;5070774;28;20048;-78
2022/12/09 08:02:22;;;;;;;40.58;15.60;;;;;;;;;;5095559;28;20056;-78
2022/12/09 08:04:49;;;;;;;35.92;16.38;;;;;;;;;;5105796;28;20579;-78
2022/12/09 08:07:17;;;;;;;41.03;16.55;;;;;;;;;;5084636;28;20064;-78
2022/12/09 08:09:44;;;;;;;35.92;15.23;;;;;;;;;;5089533;28;20052;-78
2022/12/09 08:12:11;;;;;;;36.42;15.75;;;;;;;;;;5097065;28;20386;-78
2022/12/09 08:14:38;;;;;;;33.22;15.38;;;;;;;;;;5096553;27;20897;-78
2022/12/09 08:17:06;;;;;;;34.45;13.35;;;;;;;;;;5102530;28;20063;-78
2022/12/09 08:19:33;;;;;;;33.03;13.73;;;;;;;;;;5102284;27;20094;-79
2022/12/09 08:22:00;;;;;;;30.92;13.50;;;;;;;;;;5107716;28;20081;-79
2022/12/09 08:24:27;;;;;;;35.15;14.60;;;;;;;;;;5103861;27;20117;-79
2022/12/09 08:26:54;;;;;;;31.05;13.15;;;;;;;;;;5098143;28;21749;-79
2022/12/09 08:29:20;;;;;;;35.72;14.13;;;;;;;;;;5097978;28;20056;-79
2022/12/09 08:31:47;;;;;;;39.33;15.52;;;;;;;;;;5099172;28;20052;-79
2022/12/09 08:34:14;;;;;;;40.75;16.63;;;;;;;;;;5096331;28;20146;-79
2022/12/09 08:36:41;;;;;;;42.60;15.43;;;;;;;;;;5100180;27;20055;-79
2022/12/09 08:39:08;;;;;;;66.43;15.80;;;;;;;;;;5107382;28;20113;-79
2022/12/09 08:41:35;;;;;;;134.30;19.67;;;;;;;;;;5102277;27;20102;-79
2022/12/09 08:44:06;;;;;;;131.32;18.40;;;;;;;;;;5095996;27;20048;-79
2022/12/09 08:46:35;;;;;;;53.70;17.77;;;;;;;;;;5089140;27;20052;-79
2022/12/09 08:49:03;;;;;;;54.78;16.88;;;;;;;;;;5095701;28;20056;-78
2022/12/09 08:51:30;;;;;;;58.70;17.85;;;;;;;;;;5098118;27;20098;-79
2022/12/09 08:53:57;;;;;;;140.07;18.20;;;;;;;;;;5095172;27;20098;-79
2022/12/09 08:56:25;;;;;;;234.88;20.92;;;;;;;;;;5070369;28;20056;-78
2022/12/09 08:58:52;;;;;;;317.02;22.17;;;;;;;;;;5083341;28;20136;-79
2022/12/09 09:01:23;;;;;;;228.85;20.42;;;;;;;;;;5092785;28;20056;-78
2022/12/09 09:03:50;;;;;;;288.17;22.52;;;;;;;;;;5097771;27;20577;-78
2022/12/09 09:06:17;;;;;;;231.57;19.80;;;;;;;;;;5074290;28;20056;-78
2022/12/09 09:08:44;;;;;;;177.90;17.23;;;;;;;;;;5096070;28;20515;-78
2022/12/09 09:11:12;;;;;;;293.05;21.48;;;;;;;;;;5098934;28;20037;-78
2022/12/09 09:13:43;;;;;;;183.45;17.73;;;;;;;;;;5089145;27;20131;-78
2022/12/09 09:16:11;;;;;;;216.63;18.42;;;;;;;;;;5096452;28;20052;-78
2022/12/09 09:18:38;;;;;;;165.40;18.55;;;;;;;;;;5088094;28;20510;-78
2022/12/09 09:21:06;;;;;;;213.70;18.15;;;;;;;;;;5090470;27;20498;-78
2022/12/09 09:23:33;;;;;;;121.95;15.50;;;;;;;;;;5098689;27;20810;-78
2022/12/09 09:26:10;;;;;;;109.05;17.08;;;;;;;;;;5124268;27;20864;-78
2022/12/09 09:28:38;;;;;;;122.05;18.30;;;;;;;;;;5128774;27;20158;-78
2022/12/09 09:31:05;;;;;;;57.35;15.52;;;;;;;;;;5129426;27;20826;-78
2022/12/09 09:33:33;;;;;;;63.67;16.35;;;;;;;;;;5116852;27;20063;-78
2022/12/09 09:36:01;;;;;;;46.85;17.52;;;;;;;;;;5089495;28;20086;-78
2022/12/09 09:38:35;;;;;;;45.80;16.65;;;;;;;;;;5112403;28;20127;-78
2022/12/09 09:41:06;;;;;;;45.40;18.67;;;;;;;;;;5098106;28;20056;-78
2022/12/09 09:43:34;;;;;;;44.97;18.58;;;;;;;;;;5104665;28;20067;-78
2022/12/09 09:46:03;;;;;;;44.63;18.33;;;;;;;;;;5109634;28;20064;-78
2022/12/09 09:48:31;;;;;;;41.63;17.50;;;;;;;;;;5095075;28;20052;-78
2022/12/09 09:51:05;;;;;;;52.85;18.27;;;;;;;;;;5091288;28;20052;-78
2022/12/09 09:53:33;;;;;;;51.10;18.52;;;;;;;;;;5093759;28;20056;-78
2022/12/09 09:56:03;;;;;;;49.88;18.42;;;;;;;;;;5116648;27;20055;-78
2022/12/09 09:58:36;;;;;;;48.17;18.48;;;;;;;;;;5112824;27;20525;-78
2022/12/09 10:01:07;;;;;;;49.00;19.20;;;;;;;;;;5105767;27;20508;-78
2022/12/09 10:03:50;;;;;;;44.25;16.73;;;;;;;;;;5116939;27;20056;-79
2022/12/09 10:06:41;;;;;;;40.25;17.33;;;;;;;;;;5121976;27;20172;-79
2022/12/09 10:09:31;;;;;;;51.17;18.60;;;;;;;;;;5092646;28;20056;-79
2022/12/09 10:11:58;;;;;;;50.92;18.27;;;;;;;;;;5104648;27;20059;-78
2022/12/09 10:14:38;;;;;;;45.40;17.05;;;;;;;;;;5093176;28;20524;-79
2022/12/09 10:17:05;;;;;;;49.45;17.75;;;;;;;;;;5104764;27;20056;-80
2022/12/09 10:19:34;;;;;;;50.30;18.67;;;;;;;;;;5106675;28;20071;-79
2022/12/09 10:22:10;;;;;;;45.63;17.88;;;;;;;;;;5106419;27;20336;-80
2022/12/09 10:24:41;;;;;;;44.00;16.27;;;;;;;;;;5103404;28;20060;-80
2022/12/09 10:27:14;;;;;;;47.40;17.38;;;;;;;;;;5114127;27;20906;-80
2022/12/09 10:30:00;;;;;;;46.42;17.17;;;;;;;;;;5138316;27;20063;-80
2022/12/09 10:32:28;;;;;;;41.70;15.93;;;;;;;;;;5118930;27;20048;-80
2022/12/09 10:34:56;;;;;;;42.22;16.63;;;;;;;;;;5117488;27;20056;-80
2022/12/09 10:37:22;;;;;;;45.00;16.58;;;;;;;;;;5118257;27;20047;-80
2022/12/09 10:39:52;;;;;;;38.95;15.90;;;;;;;;;;5139123;27;20054;-80
2022/12/09 10:45:07;;;;;;;37.78;14.15;;;;;;;;;;5108600;27;20055;-80
2022/12/09 10:47:34;;;;;;;40.80;15.68;;;;;;;;;;5104845;28;20097;-80
2022/12/09 10:50:02;;;;;;;43.13;15.88;;;;;;;;;;5107672;28;20074;-80
2022/12/09 10:52:35;;;;;;;41.35;16.00;;;;;;;;;;5117496;27;20113;-79
2022/12/09 10:55:02;;;;;;;33.78;14.73;;;;;;;;;;5117914;27;20051;-79
2022/12/09 10:57:29;;;;;;;41.50;16.02;;;;;;;;;;5107259;27;20062;-79
2022/12/09 10:59:55;;;;;;;38.83;15.02;;;;;;;;;;5137067;27;20062;-80
2022/12/09 11:02:24;;;;;;;34.95;14.27;;;;;;;;;;5112987;27;20052;-79
2022/12/09 11:04:51;;;;;;;38.40;14.68;;;;;;;;;;5081019;28;20058;-80
2022/12/09 11:07:19;;;;;;;38.65;15.45;;;;;;;;;;5119363;27;20594;-80
2022/12/09 11:09:47;;;;;;;44.05;17.08;;;;;;;;;;5113754;28;20048;-80
2022/12/09 11:12:27;;;;;;;37.15;15.02;;;;;;;;;;5097171;28;20056;-80
2022/12/09 11:15:04;;;;;;;40.72;16.40;;;;;;;;;;5105039;27;20866;-80
2022/12/09 11:17:32;;;;;;;37.10;14.70;;;;;;;;;;5092231;27;20193;-80
2022/12/09 11:20:05;;;;;;;41.80;16.42;;;;;;;;;;5091624;28;20052;-79
2022/12/09 11:22:37;;;;;;;38.28;15.52;;;;;;;;;;5112158;27;20916;-79
2022/12/09 11:25:11;;;;;;;42.70;17.30;;;;;;;;;;5105396;27;20044;-79
2022/12/09 11:27:40;;;;;;;41.50;15.30;;;;;;;;;;5080870;28;20060;-79
2022/12/09 11:30:16;;;;;;;33.13;14.43;;;;;;;;;;5104052;27;20056;-79
2022/12/09 11:32:51;;;;;;;40.75;15.93;;;;;;;;;;5100112;28;20598;-79
2022/12/09 11:35:23;;;;;;;39.17;16.92;;;;;;;;;;5088791;28;20127;-79
2022/12/09 11:37:50;;;;;;;36.65;16.23;;;;;;;;;;5109869;27;20052;-79
2022/12/09 11:40:17;;;;;;;40.88;16.23;;;;;;;;;;5109749;28;20073;-80
2022/12/09 11:42:51;;;;;;;37.97;15.15;;;;;;;;;;5101869;27;20056;-80
2022/12/09 11:45:21;;;;;;;34.70;14.35;;;;;;;;;;5077364;28;20055;-79
2022/12/09 11:47:48;;;;;;;34.38;14.50;;;;;;;;;;5089425;27;20102;-79
2022/12/09 11:50:41;;;;;;;41.72;16.13;;;;;;;;;;5100210;27;20154;-81
2022/12/09 11:53:10;;;;;;;37.00;15.73;;;;;;;;;;5106197;27;20689;-79
2022/12/09 11:55:41;;;;;;;34.13;14.25;;;;;;;;;;5103241;27;20507;-79
2022/12/09 11:58:11;;;;;;;32.13;13.90;;;;;;;;;;5105418;28;20052;-79
2022/12/09 12:01:04;;;;;;;35.63;14.70;;;;;;;;;;5100622;28;20036;-79
2022/12/09 12:03:39;;;;;;;34.75;14.43;;;;;;;;;;5079506;28;20141;-79
2022/12/09 12:06:10;;;;;;;37.25;15.73;;;;;;;;;;5102740;28;20140;-79
2022/12/09 12:08:42;;;;;;;35.63;14.18;;;;;;;;;;5095592;27;21098;-78
2022/12/09 12:11:11;;;;;;;31.88;14.15;;;;;;;;;;5098416;27;20867;-79
2022/12/09 12:13:43;;;;;;;33.65;14.63;;;;;;;;;;5087479;27;20056;-79
2022/12/09 12:16:10;;;;;;;34.10;14.20;;;;;;;;;;5107689;27;20506;-79
2022/12/09 12:18:41;;;;;;;35.05;14.15;;;;;;;;;;5110539;27;20143;-79
2022/12/09 12:21:34;;;;;;;33.70;13.63;;;;;;;;;;5088993;28;20503;-79
2022/12/09 12:24:00;;;;;;;34.40;13.75;;;;;;;;;;5088045;27;20143;-79
2022/12/09 12:26:37;;;;;;;34.17;14.68;;;;;;;;;;5102567;27;20054;-79
2022/12/09 12:29:16;;;;;;;28.35;13.30;;;;;;;;;;5101313;28;20086;-79
2022/12/09 12:31:57;;;;;;;33.95;14.95;;;;;;;;;;5081504;28;20057;-79
2022/12/09 12:34:30;;;;;;;32.30;13.88;;;;;;;;;;5100387;27;20083;-80
2022/12/09 12:37:23;;;;;;;34.05;13.55;;;;;;;;;;5102211;27;20060;-79
2022/12/09 12:40:01;;;;;;;32.55;14.05;;;;;;;;;;5097213;28;20094;-79
2022/12/09 12:42:40;;;;;;;34.03;14.45;;;;;;;;;;5087694;27;21568;-79
2022/12/09 12:48:06;;;;;;;32.50;13.73;;;;;;;;;;5098019;28;20048;-79
2022/12/09 12:50:37;;;;;;;30.67;14.23;;;;;;;;;;5088093;27;20059;-79
2022/12/09 12:53:19;;;;;;;31.73;13.70;;;;;;;;;;5087849;27;21213;-79
2022/12/09 12:55:55;;;;;;;31.48;13.60;;;;;;;;;;5096949;27;20780;-78
2022/12/09 12:58:27;;;;;;;34.80;14.68;;;;;;;;;;5106297;27;20060;-79
2022/12/09 13:01:24;;;;;;;29.15;13.45;;;;;;;;;;5095924;27;20063;-79
2022/12/09 13:03:57;;;;;;;30.15;12.23;;;;;;;;;;5066515;28;20110;-79
2022/12/09 13:06:32;;;;;;;31.90;13.55;;;;;;;;;;5088119;28;20075;-79
2022/12/09 13:09:01;;;;;;;33.78;13.80;;;;;;;;;;5113051;28;20664;-79
2022/12/09 13:11:32;;;;;;;30.27;13.57;;;;;;;;;;5113490;27;20525;-79
2022/12/09 13:14:03;;;;;;;31.27;14.35;;;;;;;;;;5105384;27;20056;-79
2022/12/09 13:16:33;;;;;;;30.60;14.43;;;;;;;;;;5097117;27;20539;-79
2022/12/09 13:19:04;;;;;;;30.02;13.40;;;;;;;;;;5092321;28;20925;-79
2022/12/09 13:21:31;;;;;;;34.40;14.70;;;;;;;;;;5102408;27;20054;-79
2022/12/09 13:24:01;;;;;;;33.67;14.43;;;;;;;;;;5105801;27;20056;-79
2022/12/09 13:26:45;;;;;;;27.08;12.88;;;;;;;;;;5112587;27;20459;-79
2022/12/09 13:29:15;;;;;;;31.48;14.18;;;;;;;;;;5098840;28;20493;-79
2022/12/09 13:31:46;;;;;;;30.15;13.68;;;;;;;;;;5105417;27;20889;-80
2022/12/09 13:34:38;;;;;;;27.27;13.07;;;;;;;;;;5106220;27;20056;-79
2022/12/09 13:37:24;;;;;;;27.00;12.57;;;;;;;;;;5089210;28;20059;-79
2022/12/09 13:39:53;;;;;;;26.02;12.77;;;;;;;;;;5103773;28;20056;-79
2022/12/09 13:45:14;;;;;;;30.48;13.60;;;;;;;;;;5110991;27;20147;-79
2022/12/09 13:47:41;;;;;;;31.45;12.82;;;;;;;;;;5092131;27;20131;-82
2022/12/09 13:50:22;;;;;;;30.42;13.88;;;;;;;;;;5117079;27;20157;-80
2022/12/09 13:52:48;;;;;;;;;;;;;;;;;;5113499;27;20056;-80
2022/12/09 13:55:24;;;;;;;29.20;13.18;;;;;;;;;;5119560;27;45854;-80
2022/12/09 13:58:16;;;;;;;36.00;14.85;;;;;;;;;;5107679;27;20060;-80
2022/12/09 14:00:54;;;;;;;32.33;14.02;;;;;;;;;;5053835;28;20059;-80
2022/12/09 14:03:32;;;;;;;31.20;13.90;;;;;;;;;;5077533;28;20132;-80
2022/12/09 14:06:00;;;;;;;31.48;13.98;;;;;;;;;;5099624;28;20055;-80
2022/12/09 14:08:31;;;;;;;29.85;14.25;;;;;;;;;;5113836;27;20400;-80
2022/12/09 14:11:18;;;;;;;27.95;13.15;;;;;;;;;;5124551;27;20748;-80
2022/12/09 14:13:44;;;;;;;27.48;12.80;;;;;;;;;;5076562;28;20052;-80
2022/12/09 14:16:34;;;;;;;28.42;13.15;;;;;;;;;;5097477;28;20540;-80
2022/12/09 14:19:19;;;;;;;29.25;13.15;;;;;;;;;;5102621;27;20089;-80
2022/12/09 14:22:05;;;;;;;28.83;12.77;;;;;;;;;;5116455;27;20052;-80
2022/12/09 14:24:32;;;;;;;33.53;14.52;;;;;;;;;;5125411;27;20056;-80
2022/12/09 14:26:59;;;;;;;27.25;12.63;;;;;;;;;;5112358;27;20055;-80
2022/12/09 14:29:43;;;;;;;30.20;13.68;;;;;;;;;;5103774;27;20047;-80
2022/12/09 14:32:30;;;;;;;35.92;14.73;;;;;;;;;;5120873;27;20131;-80
2022/12/09 14:35:03;;;;;;;42.17;16.98;;;;;;;;;;5107895;27;20065;-80
2022/12/09 14:37:48;;;;;;;42.63;17.00;;;;;;;;;;5101814;27;20048;-80
2022/12/09 14:40:14;;;;;;;41.15;18.75;;;;;;;;;;5111018;28;20499;-80